Time;durP1;ratioP1;P1;durP2;ratioP2;P2;SDS_P1;SDS_P2;PMS_P1;PMS_P2;Temp;Humidity;BMP_temperature;BMP_pressure;BME280_temperature;BME280_humidity;BME280_pressure;Samples;Min_cycle;Max_cycle;Signal;HPM_P1;HPM_P2
2021/09/27 00:02:19;;;;;;;11.80;6.88;;;20.50;88.00;;;;;;4996063;28;20081;-71
2021/09/27 00:04:45;;;;;;;8.23;6.63;;;20.40;87.90;;;;;;4996042;28;20493;-71
2021/09/27 00:07:10;;;;;;;10.18;7.10;;;20.40;88.10;;;;;;4995772;28;20037;-71
2021/09/27 00:09:36;;;;;;;7.95;6.88;;;20.40;88.50;;;;;;4995971;28;20043;-71
2021/09/27 00:12:05;;;;;;;10.15;7.32;;;20.50;88.70;;;;;;4995844;28;20513;-71
2021/09/27 00:14:31;;;;;;;13.00;7.25;;;20.40;88.80;;;;;;4995909;28;20444;-71
2021/09/27 00:16:57;;;;;;;11.80;7.03;;;20.50;88.80;;;;;;4996211;28;20101;-71
2021/09/27 00:19:24;;;;;;;13.25;7.75;;;20.50;88.70;;;;;;4996013;28;20467;-70
2021/09/27 00:21:51;;;;;;;9.73;7.93;;;20.50;88.80;;;;;;4995867;28;20038;-71
2021/09/27 00:24:18;;;;;;;10.07;7.18;;;20.50;88.70;;;;;;4995745;28;20387;-71
2021/09/27 00:26:45;;;;;;;10.50;7.35;;;20.40;89.10;;;;;;4995612;28;20454;-71
2021/09/27 00:29:11;;;;;;;11.18;7.47;;;20.40;88.50;;;;;;4995699;28;20038;-71
2021/09/27 00:31:37;;;;;;;9.35;6.40;;;20.50;88.70;;;;;;4995257;28;20058;-71
2021/09/27 00:34:03;;;;;;;14.95;6.07;;;20.50;88.50;;;;;;4995631;28;20034;-71
2021/09/27 00:36:29;;;;;;;11.20;6.20;;;20.50;88.10;;;;;;4995521;28;20050;-71
2021/09/27 00:38:55;;;;;;;18.75;6.80;;;20.60;87.40;;;;;;4995213;28;20023;-71
2021/09/27 00:41:22;;;;;;;13.40;6.43;;;20.50;87.20;;;;;;4995752;28;20471;-71
2021/09/27 00:43:51;;;;;;;7.70;5.75;;;20.50;87.40;;;;;;4995492;28;20035;-71
2021/09/27 00:46:20;;;;;;;13.52;5.97;;;20.40;87.50;;;;;;4995586;28;20039;-70
2021/09/27 00:48:47;;;;;;;16.75;7.13;;;20.40;87.60;;;;;;4995312;28;20396;-71
2021/09/27 00:51:17;;;;;;;11.65;6.13;;;20.40;88.00;;;;;;4995127;28;20092;-71
2021/09/27 00:53:49;;;;;;;11.88;7.18;;;20.30;88.20;;;;;;4995162;28;20037;-71
2021/09/27 00:56:17;;;;;;;;;;;20.30;88.40;;;;;;4977909;28;20045;-71
2021/09/27 00:58:45;;;;;;;10.75;5.97;;;20.20;88.10;;;;;;4992895;28;19909;-72
2021/09/27 01:01:13;;;;;;;13.00;6.35;;;20.20;88.10;;;;;;4992249;28;20027;-71
2021/09/27 01:03:38;;;;;;;12.02;5.85;;;20.20;88.00;;;;;;4992417;28;20141;-71
2021/09/27 01:06:12;;;;;;;11.40;5.30;;;20.20;88.10;;;;;;4994729;28;20042;-69
2021/09/27 01:08:42;;;;;;;8.05;5.30;;;20.20;88.30;;;;;;4994710;28;20089;-71
2021/09/27 01:11:17;;;;;;;15.82;6.03;;;20.20;88.30;;;;;;4994621;28;20050;-71
2021/09/27 01:13:45;;;;;;;13.32;5.47;;;20.20;88.30;;;;;;4994465;28;20158;-71
2021/09/27 01:16:22;;;;;;;11.80;5.97;;;20.20;88.30;;;;;;4994646;28;20487;-71
2021/09/27 01:19:46;;;;;;;9.63;5.40;;;20.20;88.70;;;;;;4994076;28;20085;-71
2021/09/27 01:22:25;;;;;;;7.68;4.65;;;20.10;88.00;;;;;;4994093;28;20050;-71
2021/09/27 01:25:40;;;;;;;11.00;5.22;;;20.10;88.10;;;;;;4994386;28;20038;-71
2021/09/27 01:28:14;;;;;;;17.55;4.88;;;20.10;88.20;;;;;;4915301;29;20036;-72
2021/09/27 01:31:14;;;;;;;7.50;4.20;;;20.00;88.50;;;;;;4915120;29;20047;-71
2021/09/27 01:33:46;;;;;;;6.50;4.70;;;20.00;88.40;;;;;;4974907;28;20038;-71
2021/09/27 01:36:15;;;;;;;12.25;5.20;;;20.00;88.60;;;;;;4993839;28;20088;-70
2021/09/27 01:38:56;;;;;;;9.90;4.32;;;20.00;88.70;;;;;;4994297;28;20034;-71
2021/09/27 01:41:33;;;;;;;14.18;5.07;;;19.90;88.80;;;;;;4994480;28;20497;-70
2021/09/27 01:44:27;;;;;;;12.98;5.70;;;19.90;89.30;;;;;;4993887;28;20034;-69
2021/09/27 01:47:13;;;;;;;12.60;5.32;;;19.80;89.60;;;;;;4994357;28;20034;-70
2021/09/27 01:49:58;;;;;;;11.65;4.90;;;19.80;90.00;;;;;;4993715;28;20467;-70
2021/09/27 01:52:33;;;;;;;8.55;4.22;;;19.80;90.00;;;;;;4993810;28;20053;-70
2021/09/27 01:55:08;;;;;;;6.47;4.03;;;19.80;89.90;;;;;;4993916;28;20063;-70
2021/09/27 01:57:55;;;;;;;8.90;3.60;;;19.80;89.70;;;;;;4993479;28;20100;-70
2021/09/27 02:00:35;;;;;;;10.65;3.03;;;19.80;89.30;;;;;;4994055;28;20118;-70
2021/09/27 02:03:49;;;;;;;7.53;3.28;;;19.90;89.30;;;;;;4994321;28;20494;-71
2021/09/27 02:06:25;;;;;;;7.20;3.45;;;19.80;89.20;;;;;;4977390;28;20042;-70
2021/09/27 02:09:11;;;;;;;5.82;3.20;;;19.90;89.10;;;;;;4993962;28;20038;-71
2021/09/27 02:11:40;;;;;;;6.20;3.20;;;19.90;89.00;;;;;;4993611;28;20100;-70
2021/09/27 02:14:29;;;;;;;5.20;3.42;;;19.90;88.70;;;;;;4993907;28;20069;-70
2021/09/27 02:17:07;;;;;;;6.57;3.00;;;19.90;88.80;;;;;;4980083;28;20046;-70
2021/09/27 02:19:50;;;;;;;9.50;3.20;;;19.80;88.80;;;;;;4993753;28;20034;-70
2021/09/27 02:23:03;;;;;;;5.28;3.22;;;19.80;89.00;;;;;;4993927;28;20091;-70
2021/09/27 02:25:32;;;;;;;7.00;3.47;;;19.80;88.70;;;;;;4976643;28;20042;-70
2021/09/27 02:28:03;;;;;;;4.78;3.00;;;19.80;88.70;;;;;;4993722;28;20441;-70
2021/09/27 02:30:43;;;;;;;6.53;3.30;;;19.80;88.70;;;;;;4993251;28;20077;-71
2021/09/27 02:33:17;;;;;;;7.15;3.90;;;19.80;88.70;;;;;;4993816;28;20503;-70
2021/09/27 02:35:51;;;;;;;4.78;3.30;;;19.80;89.10;;;;;;4993336;28;20557;-70
2021/09/27 02:38:26;;;;;;;7.13;3.70;;;19.80;89.10;;;;;;4992130;28;20042;-70
2021/09/27 02:41:13;;;;;;;5.20;3.47;;;19.90;89.20;;;;;;4992711;28;20114;-70
2021/09/27 02:43:39;;;;;;;7.25;3.85;;;19.80;89.10;;;;;;4993568;28;20475;-70
2021/09/27 02:46:04;;;;;;;5.00;3.10;;;19.80;89.10;;;;;;4993212;28;20042;-69
2021/09/27 02:48:36;;;;;;;5.35;3.45;;;19.80;89.00;;;;;;4993136;28;20041;-70
2021/09/27 02:51:03;;;;;;;5.93;3.55;;;19.80;89.00;;;;;;4993378;28;20093;-70
2021/09/27 02:53:29;;;;;;;7.07;3.65;;;19.80;88.90;;;;;;4993372;28;20026;-70
2021/09/27 02:56:05;;;;;;;5.13;3.20;;;19.80;89.20;;;;;;4993379;28;20147;-71
2021/09/27 02:58:47;;;;;;;7.85;3.65;;;19.80;89.40;;;;;;4993332;28;20382;-70
2021/09/27 03:01:16;;;;;;;4.97;3.17;;;19.80;89.50;;;;;;4993163;28;20048;-70
2021/09/27 03:04:00;;;;;;;6.50;3.30;;;19.80;89.60;;;;;;4993088;28;20081;-70
2021/09/27 03:06:59;;;;;;;6.57;3.38;;;19.80;89.60;;;;;;4993341;28;20038;-70
2021/09/27 03:10:02;;;;;;;7.25;3.53;;;19.80;89.40;;;;;;4993207;28;20486;-70
2021/09/27 03:12:54;;;;;;;3.85;3.30;;;19.80;89.40;;;;;;4993374;28;20092;-71
2021/09/27 03:15:28;;;;;;;6.05;3.60;;;19.80;89.30;;;;;;4993450;28;20034;-71
2021/09/27 03:17:54;;;;;;;7.32;3.65;;;19.90;89.30;;;;;;4993375;28;20438;-70
2021/09/27 03:21:07;;;;;;;6.30;3.67;;;19.80;89.20;;;;;;4993640;28;20034;-70
2021/09/27 03:23:49;;;;;;;7.93;4.00;;;19.80;89.20;;;;;;4993399;28;20065;-70
2021/09/27 03:26:34;;;;;;;7.88;4.18;;;19.80;89.20;;;;;;4992916;28;20038;-70
2021/09/27 03:29:17;;;;;;;8.15;3.97;;;19.80;89.40;;;;;;4992921;28;20103;-70
2021/09/27 03:31:55;;;;;;;7.43;4.00;;;19.80;89.50;;;;;;4992722;28;20062;-70
2021/09/27 03:34:24;;;;;;;7.22;4.35;;;19.80;89.50;;;;;;4993039;28;20038;-70
2021/09/27 03:37:07;;;;;;;10.82;4.40;;;19.80;89.30;;;;;;4993039;28;20034;-71
2021/09/27 03:39:37;;;;;;;7.03;4.07;;;19.80;89.30;;;;;;4993157;28;20038;-70
2021/09/27 03:42:16;;;;;;;8.00;4.30;;;19.80;89.30;;;;;;4995355;28;20120;-70
2021/09/27 03:45:23;;;;;;;8.50;4.18;;;19.80;89.50;;;;;;4996571;28;20046;-70
2021/09/27 03:48:07;;;;;;;7.07;4.30;;;19.80;89.70;;;;;;4979275;28;20045;-70
2021/09/27 03:50:53;;;;;;;8.18;4.85;;;19.80;89.70;;;;;;4996474;28;20070;-70
2021/09/27 03:53:27;;;;;;;11.15;4.68;;;19.80;89.70;;;;;;4996339;28;20049;-70
2021/09/27 03:56:13;;;;;;;11.43;4.75;;;19.80;89.80;;;;;;4996489;28;20038;-70
2021/09/27 03:58:58;;;;;;;10.98;5.22;;;19.80;89.70;;;;;;4995282;28;20061;-70
2021/09/27 04:01:57;;;;;;;6.47;4.20;;;19.80;89.70;;;;;;4996132;28;20031;-70
2021/09/27 04:04:44;;;;;;;10.93;4.90;;;19.80;89.90;;;;;;4992271;28;20069;-70
2021/09/27 04:07:42;;;;;;;7.13;4.68;;;19.80;89.80;;;;;;4996177;28;20039;-70
2021/09/27 04:10:16;;;;;;;7.45;4.30;;;19.80;89.70;;;;;;4952579;28;20430;-70
2021/09/27 04:13:15;;;;;;;10.23;4.97;;;19.80;89.70;;;;;;4995997;28;20046;-71
2021/09/27 04:15:47;;;;;;;11.68;4.55;;;19.80;89.80;;;;;;4995951;28;20553;-70
2021/09/27 04:18:21;;;;;;;10.82;4.97;;;19.80;90.20;;;;;;4995807;28;20026;-70
2021/09/27 04:21:17;;;;;;;7.68;4.75;;;19.80;90.00;;;;;;4995510;28;20034;-70
2021/09/27 04:23:48;;;;;;;9.18;5.07;;;19.80;89.90;;;;;;4995854;28;20058;-70
2021/09/27 04:26:38;;;;;;;8.18;4.78;;;19.80;89.90;;;;;;4995524;28;20042;-70
2021/09/27 04:29:21;;;;;;;8.70;4.90;;;19.80;89.80;;;;;;4995478;28;20039;-70
2021/09/27 04:32:07;;;;;;;9.90;5.07;;;19.70;90.00;;;;;;4995352;28;20471;-70
2021/09/27 04:34:55;;;;;;;9.13;5.43;;;19.80;90.10;;;;;;4995536;28;20038;-70
2021/09/27 04:37:22;;;;;;;11.32;4.68;;;19.80;90.20;;;;;;4995586;28;20105;-70
2021/09/27 04:39:48;;;;;;;10.05;5.60;;;19.80;90.20;;;;;;4995431;28;20042;-69
2021/09/27 04:42:36;;;;;;;8.30;5.47;;;19.80;90.20;;;;;;4995376;28;20035;-70
2021/09/27 04:45:17;;;;;;;7.70;4.82;;;19.80;90.20;;;;;;4995295;28;20049;-70
2021/09/27 04:47:47;;;;;;;9.05;5.03;;;19.80;90.10;;;;;;4995330;28;20081;-70
2021/09/27 04:50:25;;;;;;;9.13;4.97;;;19.80;90.00;;;;;;4995197;28;20053;-70
2021/09/27 04:53:09;;;;;;;10.32;4.80;;;19.80;90.00;;;;;;4994105;28;20166;-70
2021/09/27 04:55:35;;;;;;;6.90;4.97;;;19.80;90.00;;;;;;4995225;28;20034;-70
2021/09/27 04:58:45;;;;;;;11.38;5.05;;;19.80;90.00;;;;;;4995232;28;20482;-70
2021/09/27 05:01:43;;;;;;;10.07;5.13;;;19.80;90.00;;;;;;4994973;28;20113;-71
2021/09/27 05:04:33;;;;;;;11.25;5.53;;;19.80;90.00;;;;;;4994830;28;20034;-70
2021/09/27 05:06:58;;;;;;;11.90;5.70;;;19.80;90.00;;;;;;4995087;28;20104;-70
2021/09/27 05:09:43;;;;;;;10.48;4.65;;;19.80;90.00;;;;;;4994807;28;20495;-70
2021/09/27 05:12:27;;;;;;;9.57;5.20;;;19.80;90.00;;;;;;4995057;28;20046;-70
2021/09/27 05:15:20;;;;;;;9.18;5.28;;;19.80;89.90;;;;;;4994827;28;20395;-70
2021/09/27 05:17:49;;;;;;;8.05;5.13;;;19.80;89.90;;;;;;4994722;28;20045;-70
2021/09/27 05:20:44;;;;;;;9.32;5.32;;;19.80;89.80;;;;;;4994526;28;20030;-70
2021/09/27 05:23:25;;;;;;;8.18;5.40;;;19.80;90.00;;;;;;4994810;28;20054;-71
2021/09/27 05:26:09;;;;;;;10.95;5.72;;;19.80;90.10;;;;;;4994774;28;20049;-71
2021/09/27 05:29:11;;;;;;;9.85;5.57;;;19.80;90.10;;;;;;4994403;28;20545;-71
2021/09/27 05:32:13;;;;;;;10.00;5.85;;;19.80;90.20;;;;;;4994143;28;20053;-71
2021/09/27 05:34:42;;;;;;;8.45;5.97;;;19.80;90.20;;;;;;4994546;28;20046;-70
2021/09/27 05:37:19;;;;;;;10.52;5.20;;;19.80;90.30;;;;;;4994703;28;20038;-71
2021/09/27 05:40:30;;;;;;;9.07;5.28;;;19.80;90.30;;;;;;4994231;28;20403;-70
2021/09/27 05:43:23;;;;;;;7.47;5.07;;;19.80;90.20;;;;;;4989829;28;20069;-70
2021/09/27 05:46:04;;;;;;;8.73;4.82;;;19.70;90.20;;;;;;4995069;28;20403;-70
2021/09/27 05:48:36;;;;;;;13.25;5.65;;;19.80;90.10;;;;;;4994005;28;20066;-70
2021/09/27 05:51:16;;;;;;;10.65;6.05;;;19.80;90.00;;;;;;4993226;28;20034;-71
2021/09/27 05:53:41;;;;;;;10.85;5.00;;;19.80;90.00;;;;;;4993642;28;20479;-70
2021/09/27 05:56:20;;;;;;;11.95;5.50;;;19.80;89.90;;;;;;4993970;28;20038;-71
2021/09/27 05:59:14;;;;;;;11.32;6.35;;;19.80;89.70;;;;;;4993971;28;20549;-72
2021/09/27 06:01:49;;;;;;;10.90;5.43;;;19.80;89.50;;;;;;4976479;28;20026;-70
2021/09/27 06:04:40;;;;;;;12.52;5.55;;;19.80;89.20;;;;;;4993367;28;20475;-71
2021/09/27 06:07:47;;;;;;;14.00;5.90;;;19.80;89.00;;;;;;4976467;28;20053;-71
2021/09/27 06:10:28;;;;;;;11.40;5.32;;;19.80;89.00;;;;;;4993841;28;20037;-71
2021/09/27 06:13:01;;;;;;;9.02;5.53;;;19.90;88.80;;;;;;4993823;28;20505;-71
2021/09/27 06:15:45;;;;;;;8.40;5.25;;;19.90;88.60;;;;;;4993758;28;20035;-70
2021/09/27 06:18:36;;;;;;;13.23;5.93;;;19.90;88.50;;;;;;4976880;28;20121;-70
2021/09/27 06:21:28;;;;;;;14.23;5.35;;;19.90;88.70;;;;;;4993976;28;20402;-71
2021/09/27 06:24:02;;;;;;;12.80;5.78;;;19.90;88.50;;;;;;4962092;28;20912;-70
2021/09/27 06:26:31;;;;;;;10.63;5.28;;;19.90;88.50;;;;;;4993149;28;20462;-71
2021/09/27 06:29:02;;;;;;;10.75;5.88;;;19.90;88.80;;;;;;4993173;28;20041;-71
2021/09/27 06:31:40;;;;;;;10.43;5.90;;;19.90;88.80;;;;;;4991639;28;20525;-70
2021/09/27 06:34:50;;;;;;;15.07;5.90;;;19.90;89.00;;;;;;4992687;28;20042;-70
2021/09/27 06:37:18;;;;;;;16.13;5.78;;;19.90;89.10;;;;;;4898608;29;20044;-70
2021/09/27 06:39:46;;;;;;;15.23;5.25;;;20.00;89.00;;;;;;4908814;28;20034;-71
2021/09/27 06:42:12;;;;;;;10.40;5.80;;;20.00;88.80;;;;;;4993411;28;20113;-70
2021/09/27 06:44:38;;;;;;;10.38;5.57;;;19.90;89.00;;;;;;4993503;28;20132;-70
2021/09/27 06:47:04;;;;;;;10.80;5.60;;;20.00;88.90;;;;;;4993130;28;20027;-70
2021/09/27 06:49:29;;;;;;;10.40;5.57;;;19.90;89.20;;;;;;4992922;28;20054;-70
2021/09/27 06:51:56;;;;;;;10.25;5.53;;;19.90;89.30;;;;;;4993060;28;20054;-70
2021/09/27 06:54:22;;;;;;;8.85;5.65;;;19.90;89.30;;;;;;4992957;28;20045;-70
2021/09/27 06:56:48;;;;;;;9.32;5.55;;;19.90;89.40;;;;;;4993358;28;20081;-70
2021/09/27 06:59:16;;;;;;;10.88;6.28;;;20.00;89.50;;;;;;4992344;28;20034;-70
2021/09/27 07:01:43;;;;;;;12.63;5.65;;;20.00;89.60;;;;;;4971786;28;20439;-71
2021/09/27 07:04:08;;;;;;;10.60;5.63;;;20.00;89.40;;;;;;4973243;28;20027;-70
2021/09/27 07:06:34;;;;;;;13.38;6.22;;;20.00;90.10;;;;;;4995637;28;20538;-70
2021/09/27 07:09:00;;;;;;;13.00;5.95;;;20.00;90.00;;;;;;5012361;28;20026;-71
2021/09/27 07:11:26;;;;;;;12.88;5.65;;;20.00;90.00;;;;;;5012859;28;20449;-69
2021/09/27 07:13:51;;;;;;;12.05;5.70;;;20.10;90.00;;;;;;5012486;28;20432;-68
2021/09/27 07:16:17;;;;;;;11.43;5.45;;;20.10;89.90;;;;;;5014132;28;20034;-68
2021/09/27 07:18:43;;;;;;;11.93;6.07;;;20.10;89.40;;;;;;5016403;28;20042;-69
2021/09/27 07:21:10;;;;;;;10.05;5.90;;;20.20;89.40;;;;;;5016433;28;20108;-69
2021/09/27 07:23:40;;;;;;;10.93;6.72;;;20.20;89.60;;;;;;5015052;28;20027;-69
2021/09/27 07:26:08;;;;;;;10.43;5.85;;;20.20;89.60;;;;;;5015281;28;20084;-69
2021/09/27 07:28:34;;;;;;;20.20;6.85;;;20.30;89.90;;;;;;5015132;28;20034;-68
2021/09/27 07:31:00;;;;;;;12.10;6.15;;;20.40;89.80;;;;;;5014167;28;20402;-69
2021/09/27 07:33:27;;;;;;;10.60;5.65;;;20.40;89.70;;;;;;5015758;28;20479;-69
2021/09/27 07:35:54;;;;;;;10.95;5.65;;;20.40;89.40;;;;;;5016026;28;20026;-69
2021/09/27 07:38:20;;;;;;;14.90;5.93;;;20.40;89.40;;;;;;5015454;28;20044;-69
2021/09/27 07:40:46;;;;;;;11.07;6.43;;;20.40;89.60;;;;;;5015988;28;20534;-69
2021/09/27 07:43:11;;;;;;;12.55;6.72;;;20.50;89.50;;;;;;5015830;28;20463;-69
2021/09/27 07:45:38;;;;;;;12.90;6.68;;;20.40;89.30;;;;;;5015040;28;20494;-69
2021/09/27 07:48:10;;;;;;;10.10;6.35;;;20.40;89.30;;;;;;5015939;28;20497;-73
2021/09/27 07:50:37;;;;;;;16.10;6.90;;;20.40;89.60;;;;;;5016117;28;20034;-69
2021/09/27 07:53:03;;;;;;;15.73;7.72;;;20.50;89.60;;;;;;5016082;28;20423;-71
2021/09/27 07:55:29;;;;;;;12.95;6.82;;;20.40;90.10;;;;;;5015823;28;20072;-69
2021/09/27 07:57:55;;;;;;;16.35;7.22;;;20.50;90.00;;;;;;5015727;28;20453;-69
2021/09/27 08:00:21;;;;;;;17.20;8.07;;;20.50;90.10;;;;;;5015773;28;20029;-69
2021/09/27 08:02:46;;;;;;;13.57;6.68;;;20.40;90.00;;;;;;5015806;28;20037;-69
2021/09/27 08:05:19;;;;;;;13.63;6.38;;;20.40;89.80;;;;;;5015826;28;20121;-68
2021/09/27 08:07:45;;;;;;;12.35;6.57;;;20.50;89.40;;;;;;5015779;28;20042;-69
2021/09/27 08:10:13;;;;;;;11.82;7.68;;;20.40;89.10;;;;;;5015694;28;20065;-69
2021/09/27 08:12:39;;;;;;;13.50;6.85;;;20.50;89.60;;;;;;5015365;28;20050;-69
2021/09/27 08:15:08;;;;;;;19.17;6.13;;;20.50;89.10;;;;;;5015071;28;20109;-72
2021/09/27 08:17:34;;;;;;;11.55;5.45;;;20.50;88.70;;;;;;5015019;28;20382;-68
2021/09/27 08:20:02;;;;;;;12.80;6.60;;;20.50;88.40;;;;;;5014870;28;20034;-69
2021/09/27 08:22:27;;;;;;;13.15;6.40;;;20.50;88.20;;;;;;5013569;28;20042;-70
2021/09/27 08:24:53;;;;;;;20.67;6.20;;;20.50;88.00;;;;;;5011064;28;20038;-70
2021/09/27 08:27:19;;;;;;;11.55;6.30;;;20.50;88.00;;;;;;5011704;28;20045;-72
2021/09/27 08:29:44;;;;;;;11.85;6.50;;;20.50;87.70;;;;;;5011291;28;20045;-69
2021/09/27 08:32:10;;;;;;;16.80;6.30;;;20.50;87.90;;;;;;5011741;28;20398;-69
2021/09/27 08:34:36;;;;;;;10.65;7.05;;;20.60;88.20;;;;;;5012993;28;20128;-70
2021/09/27 08:37:02;;;;;;;15.35;7.45;;;20.60;88.60;;;;;;5014105;28;20498;-70
2021/09/27 08:39:28;;;;;;;13.77;7.20;;;20.60;88.60;;;;;;5013235;28;20034;-69
2021/09/27 08:42:09;;;;;;;19.33;7.65;;;20.60;89.10;;;;;;5014365;28;20092;-70
2021/09/27 08:45:01;;;;;;;17.88;6.70;;;20.70;90.00;;;;;;5014807;28;20032;-72
2021/09/27 08:47:36;;;;;;;16.55;7.63;;;20.70;89.90;;;;;;5015047;28;20029;-71
2021/09/27 08:50:27;;;;;;;13.20;6.82;;;20.70;89.80;;;;;;5015070;28;20037;-70
2021/09/27 08:52:53;;;;;;;13.70;6.18;;;20.70;89.60;;;;;;5014145;28;20418;-70
2021/09/27 08:55:20;;;;;;;15.10;6.32;;;20.70;89.10;;;;;;5014805;28;20036;-70
2021/09/27 08:58:04;;;;;;;14.30;6.45;;;20.80;88.50;;;;;;5014839;28;20041;-70
2021/09/27 09:00:41;;;;;;;17.08;6.55;;;20.80;88.50;;;;;;5014799;28;20037;-71
2021/09/27 09:03:52;;;;;;;12.98;6.78;;;20.80;88.10;;;;;;5014702;28;20166;-71
2021/09/27 09:06:34;;;;;;;9.98;6.40;;;20.90;87.90;;;;;;4993411;28;20034;-70
2021/09/27 09:09:05;;;;;;;14.10;6.57;;;20.90;87.60;;;;;;5014684;28;20083;-71
2021/09/27 09:11:52;;;;;;;12.60;6.15;;;21.00;87.50;;;;;;5014694;28;20092;-71
2021/09/27 09:14:39;;;;;;;16.17;6.68;;;21.00;87.50;;;;;;5014530;28;20065;-70
2021/09/27 09:17:17;;;;;;;11.70;5.47;;;21.00;86.90;;;;;;5014647;28;20056;-71
2021/09/27 09:19:43;;;;;;;13.90;5.80;;;21.00;86.30;;;;;;5014572;28;20092;-71
2021/09/27 09:22:35;;;;;;;11.15;6.75;;;21.00;86.50;;;;;;5014439;28;20026;-71
2021/09/27 09:25:06;;;;;;;;;;;21.00;86.70;;;;;;5014441;28;20045;-71
2021/09/27 09:27:32;;;;;;;13.70;6.10;;;21.00;86.40;;;;;;5014280;28;20092;-71
2021/09/27 09:29:58;;;;;;;17.23;7.57;;;21.00;86.20;;;;;;5014379;28;20176;-71
2021/09/27 09:32:28;;;;;;;15.65;7.35;;;21.00;86.20;;;;;;5014450;28;20053;-71
2021/09/27 09:35:15;;;;;;;13.93;7.13;;;20.90;86.90;;;;;;5014396;28;20077;-71
2021/09/27 09:38:03;;;;;;;13.10;7.15;;;20.90;87.20;;;;;;5014215;28;20049;-71
2021/09/27 09:40:51;;;;;;;12.13;8.02;;;20.90;87.20;;;;;;5013827;28;20034;-71
2021/09/27 09:43:29;;;;;;;15.15;7.72;;;20.90;87.20;;;;;;5013933;28;20080;-72
2021/09/27 09:46:09;;;;;;;12.90;8.10;;;20.90;87.10;;;;;;5014000;28;20041;-70
2021/09/27 09:48:37;;;;;;;14.73;9.23;;;20.90;86.60;;;;;;5013906;28;20474;-71
2021/09/27 09:51:24;;;;;;;13.10;8.77;;;20.90;86.60;;;;;;5013888;28;20030;-71
2021/09/27 09:54:16;;;;;;;13.18;8.88;;;20.80;86.90;;;;;;5013729;28;20034;-71
2021/09/27 09:56:47;;;;;;;14.18;9.32;;;20.90;87.00;;;;;;5013857;28;20041;-71
2021/09/27 09:59:33;;;;;;;11.32;9.23;;;20.80;86.50;;;;;;5013625;28;20037;-70
2021/09/27 10:02:00;;;;;;;14.00;10.95;;;20.80;86.70;;;;;;5013194;28;20030;-70
2021/09/27 10:04:41;;;;;;;14.05;9.57;;;20.90;87.10;;;;;;5013341;28;20096;-72
2021/09/27 10:07:16;;;;;;;15.48;11.13;;;20.90;87.30;;;;;;5013629;28;20487;-71
2021/09/27 10:09:58;;;;;;;13.75;8.95;;;20.90;87.50;;;;;;5013486;28;20041;-71
2021/09/27 10:12:39;;;;;;;;;;;20.90;87.60;;;;;;5014222;28;20490;-71
2021/09/27 10:15:05;;;;;;;12.60;8.80;;;20.90;87.20;;;;;;5013748;28;19912;-71
2021/09/27 10:17:38;;;;;;;12.55;8.57;;;20.90;86.80;;;;;;5013494;28;20026;-70
2021/09/27 10:20:24;;;;;;;18.17;9.27;;;20.90;87.30;;;;;;4996025;28;20124;-70
2021/09/27 10:23:02;;;;;;;14.95;8.80;;;20.90;88.00;;;;;;5013533;28;20041;-71
2021/09/27 10:25:41;;;;;;;13.02;7.88;;;20.90;87.70;;;;;;5013741;28;20049;-71
2021/09/27 10:28:18;;;;;;;16.63;8.57;;;20.90;87.60;;;;;;5013112;28;20464;-71
2021/09/27 10:30:48;;;;;;;14.13;8.38;;;20.90;87.70;;;;;;5013091;28;20046;-70
2021/09/27 10:33:18;;;;;;;13.68;8.02;;;21.00;87.70;;;;;;5012919;28;20433;-71
2021/09/27 10:35:57;;;;;;;15.55;8.27;;;21.00;88.00;;;;;;5013193;28;20032;-70
2021/09/27 10:38:31;;;;;;;14.70;8.82;;;21.00;88.00;;;;;;5012770;28;20045;-71
2021/09/27 10:41:04;;;;;;;18.45;10.52;;;21.00;87.90;;;;;;5012934;28;20038;-70
2021/09/27 10:43:30;;;;;;;17.52;9.02;;;21.00;88.00;;;;;;5014171;28;20034;-71
2021/09/27 10:45:59;;;;;;;13.70;9.23;;;21.00;88.20;;;;;;5013418;28;20470;-71
2021/09/27 10:48:27;;;;;;;16.55;8.68;;;21.00;88.40;;;;;;5013044;28;20112;-70
2021/09/27 10:50:57;;;;;;;18.05;8.57;;;21.00;88.40;;;;;;5015705;28;20411;-71
2021/09/27 10:53:33;;;;;;;14.65;8.25;;;21.00;88.20;;;;;;5016971;28;20092;-71
2021/09/27 10:56:27;;;;;;;11.35;7.88;;;21.00;88.20;;;;;;5017326;28;20045;-71
2021/09/27 10:58:56;;;;;;;12.25;7.75;;;21.10;88.20;;;;;;5016569;28;20124;-70
2021/09/27 11:01:43;;;;;;;13.98;8.45;;;21.10;88.10;;;;;;5017870;28;20044;-71
2021/09/27 11:04:29;;;;;;;13.50;7.93;;;21.10;88.50;;;;;;5016112;28;20080;-71
2021/09/27 11:07:12;;;;;;;12.00;8.60;;;21.10;88.30;;;;;;5016718;28;20378;-71
2021/09/27 11:09:37;;;;;;;15.43;8.52;;;21.10;88.40;;;;;;5016159;28;20034;-71
2021/09/27 11:12:03;;;;;;;14.73;6.97;;;21.20;88.10;;;;;;5016480;28;20532;-70
2021/09/27 11:14:50;;;;;;;14.88;8.32;;;21.20;88.10;;;;;;5016930;28;20033;-70
2021/09/27 11:17:18;;;;;;;14.75;7.50;;;21.30;88.10;;;;;;5016919;28;20452;-70
2021/09/27 11:19:58;;;;;;;14.18;7.90;;;21.30;88.10;;;;;;5016586;28;20437;-70
2021/09/27 11:22:39;;;;;;;16.95;8.70;;;21.30;88.00;;;;;;5016449;28;20041;-70
2021/09/27 11:25:07;;;;;;;12.77;7.45;;;21.30;87.80;;;;;;5016721;28;20033;-70
2021/09/27 11:27:37;;;;;;;13.52;7.85;;;21.40;87.70;;;;;;5016752;28;20161;-70
2021/09/27 11:30:21;;;;;;;12.40;8.05;;;21.40;87.70;;;;;;5016281;28;20057;-70
2021/09/27 11:32:57;;;;;;;17.58;7.68;;;21.40;87.70;;;;;;5015929;28;20103;-71
2021/09/27 11:35:40;;;;;;;13.20;7.57;;;21.40;87.60;;;;;;5016468;28;20038;-71
2021/09/27 11:38:27;;;;;;;16.90;8.77;;;21.50;87.60;;;;;;5016336;28;20057;-71
2021/09/27 11:41:01;;;;;;;11.27;7.35;;;21.50;87.70;;;;;;5016212;28;20038;-71
2021/09/27 11:43:52;;;;;;;13.57;7.28;;;21.50;87.60;;;;;;5016444;28;20152;-71
2021/09/27 11:46:32;;;;;;;10.32;7.35;;;21.60;87.70;;;;;;5016129;28;20121;-70
2021/09/27 11:49:27;;;;;;;14.32;7.80;;;21.60;87.30;;;;;;5015997;28;20041;-70
2021/09/27 11:52:07;;;;;;;16.40;6.85;;;21.70;87.20;;;;;;5015860;28;20046;-73
2021/09/27 11:54:55;;;;;;;14.02;7.25;;;21.70;86.70;;;;;;5016170;28;20105;-70
2021/09/27 11:57:39;;;;;;;12.05;7.53;;;21.80;86.90;;;;;;5016104;28;20030;-71
2021/09/27 12:00:22;;;;;;;14.25;6.72;;;21.80;86.70;;;;;;5015938;28;20030;-70
2021/09/27 12:03:06;;;;;;;11.50;7.15;;;21.80;86.80;;;;;;5015312;28;20041;-70
2021/09/27 12:06:00;;;;;;;12.80;6.45;;;21.80;86.50;;;;;;5016090;28;20525;-72
2021/09/27 12:08:28;;;;;;;11.88;6.85;;;21.80;86.40;;;;;;5015598;28;20570;-70
2021/09/27 12:10:59;;;;;;;18.05;7.55;;;21.90;86.70;;;;;;5015463;28;20092;-69
2021/09/27 12:13:55;;;;;;;10.52;6.97;;;21.90;86.20;;;;;;5015587;28;20033;-72
2021/09/27 12:16:25;;;;;;;13.15;7.30;;;21.90;85.90;;;;;;5015689;28;20034;-72
2021/09/27 12:18:54;;;;;;;14.40;7.30;;;22.00;85.40;;;;;;5015210;28;20133;-72
2021/09/27 12:21:28;;;;;;;9.25;6.95;;;22.10;85.10;;;;;;5015064;28;20033;-72
2021/09/27 12:24:05;;;;;;;9.95;7.13;;;22.20;84.80;;;;;;5014040;28;20045;-72
2021/09/27 12:26:40;;;;;;;11.85;6.90;;;22.30;84.30;;;;;;5015098;28;20058;-72
2021/09/27 12:29:12;;;;;;;10.93;7.45;;;22.30;84.00;;;;;;5014992;28;20045;-72
2021/09/27 12:31:49;;;;;;;10.77;7.10;;;22.30;84.10;;;;;;5015105;28;20140;-72
2021/09/27 12:34:20;;;;;;;17.08;7.28;;;22.30;84.40;;;;;;5014923;28;20034;-72
2021/09/27 12:36:45;;;;;;;11.23;6.50;;;22.30;84.20;;;;;;5015141;28;20088;-72
2021/09/27 12:39:11;;;;;;;12.77;7.68;;;22.40;83.70;;;;;;5014800;28;20467;-72
2021/09/27 12:41:39;;;;;;;9.70;6.88;;;22.40;83.80;;;;;;5014675;28;20030;-73
2021/09/27 12:44:17;;;;;;;12.70;7.05;;;22.40;83.80;;;;;;5014766;28;20038;-72
2021/09/27 12:46:46;;;;;;;12.15;6.30;;;22.50;83.20;;;;;;5014567;28;20034;-72
2021/09/27 12:49:14;;;;;;;12.30;6.60;;;22.50;82.20;;;;;;5014650;28;20048;-71
2021/09/27 12:51:44;;;;;;;10.55;6.30;;;22.50;82.10;;;;;;5012848;28;20060;-72
2021/09/27 12:54:28;;;;;;;11.05;6.63;;;22.60;82.40;;;;;;5012870;28;20038;-72
2021/09/27 12:56:56;;;;;;;14.52;6.57;;;22.60;82.10;;;;;;5013808;28;20042;-71
2021/09/27 12:59:25;;;;;;;13.77;7.25;;;22.60;81.50;;;;;;5013818;28;20585;-72
2021/09/27 13:01:58;;;;;;;9.23;6.53;;;22.60;81.50;;;;;;5013671;28;20029;-70
2021/09/27 13:04:33;;;;;;;11.55;6.60;;;22.70;81.30;;;;;;5014038;28;20466;-71
2021/09/27 13:07:08;;;;;;;11.27;6.10;;;22.70;81.20;;;;;;5014520;28;20503;-71
2021/09/27 13:09:38;;;;;;;10.02;6.55;;;22.70;80.80;;;;;;5014207;28;20080;-71
2021/09/27 13:12:26;;;;;;;14.05;6.53;;;22.70;80.70;;;;;;5014281;28;20569;-71
2021/09/27 13:15:01;;;;;;;11.57;6.80;;;22.80;80.90;;;;;;5013424;28;20066;-71
2021/09/27 13:17:29;;;;;;;12.98;6.93;;;22.80;80.70;;;;;;5014325;28;20036;-71
2021/09/27 13:20:01;;;;;;;13.43;6.63;;;22.80;80.80;;;;;;5014215;28;20034;-70
2021/09/27 13:22:27;;;;;;;10.05;7.15;;;22.90;80.10;;;;;;5014496;28;20113;-71
2021/09/27 13:25:09;;;;;;;11.88;6.32;;;22.90;80.00;;;;;;5014380;28;20113;-70
2021/09/27 13:27:41;;;;;;;12.07;5.93;;;22.90;79.70;;;;;;5014321;28;20045;-70
2021/09/27 13:30:19;;;;;;;;;;;22.90;79.80;;;;;;4998912;28;20368;-70